Data for 07/15/2009

Time Sea-Level Adjusted Pressure Absolute Pressure Temperature Relative Humidity Dew Point   
(mb) (inHg) (mb) (inHg) (C) (F) (%) (C) (F)
00:05 1023 30.21 852 25.16 11.9 53.4 72 7 44.7
00:10 1023 30.21 852 25.16 11.9 53.4 72 7.1 44.7
00:15 1023 30.21 852 25.16 11.8 53.2 72 7 44.7
00:20 1023 30.21 852 25.16 11.6 52.9 73 7 44.6
00:25 1023 30.21 852 25.16 11.5 52.8 73 6.8 44.3
00:30 1023 30.21 852 25.16 11.4 52.4 72 6.5 43.7
00:35 1023 30.21 852 25.16 11.4 52.5 73 6.7 44.1
00:40 1023 30.21 852 25.16 11.2 52.2 73 6.6 43.8
00:45 1023 30.21 852 25.16 11.3 52.3 72 6.4 43.6
00:50 1023 30.21 852 25.16 11.3 52.4 72 6.4 43.5
00:55 1023 30.21 852 25.16 11.5 52.7 71 6.4 43.6
01:00 1023 30.21 852 25.16 11.5 52.7 71 6.5 43.6
01:05 1023 30.21 852 25.16 11.5 52.7 72 6.6 43.9
01:10 1023 30.21 852 25.16 11.5 52.6 72 6.7 44
01:15 1023 30.21 852 25.16 11.4 52.4 73 6.6 43.9
01:20 1023 30.21 852 25.16 11.4 52.5 72 6.6 43.8
01:25 1022 30.18 852 25.16 11.6 52.8 72 6.6 43.9
01:30 1023 30.21 852 25.16 11.5 52.7 72 6.7 44
01:35 1022 30.18 852 25.16 11.4 52.4 73 6.7 44.1
01:40 1022 30.18 852 25.16 11.3 52.4 72 6.5 43.8
01:45 1022 30.18 852 25.16 11.2 52.2 74 6.7 44
01:50 1022 30.18 851 25.13 11 51.8 74 6.5 43.8
01:55 1022 30.18 851 25.13 10.9 51.7 74 6.5 43.6
02:00 1022 30.18 851 25.13 11.1 52.1 72 6.4 43.5
02:05 1022 30.18 851 25.13 11.5 52.7 71 6.5 43.7
02:10 1022 30.18 851 25.13 11.6 52.8 71 6.5 43.7
02:15 1022 30.18 851 25.13 11.5 52.6 72 6.5 43.8
02:20 1022 30.18 851 25.13 11.3 52.3 72 6.5 43.7
02:25 1022 30.18 851 25.13 11 51.9 73 6.5 43.6
02:30 1022 30.18 851 25.13 10.8 51.4 74 6.3 43.4
02:35 1022 30.18 851 25.13 10.7 51.3 74 6.3 43.4
02:40 1022 30.18 851 25.13 10.8 51.4 74 6.4 43.5
02:45 1022 30.18 851 25.13 11 51.8 73 6.4 43.6
02:50 1022 30.18 851 25.13 11.1 51.9 74 6.6 43.8
02:55 1022 30.18 851 25.13 11.2 52.1 72 6.4 43.6
03:00 1022 30.18 851 25.13 11.3 52.4 72 6.5 43.6
03:05 1022 30.18 851 25.13 11.3 52.4 71 6.3 43.4
03:10 1022 30.18 851 25.13 11.3 52.4 70 6.1 42.9
03:15 1022 30.18 851 25.13 11.5 52.6 69 6.1 43
03:20 1022 30.18 851 25.13 11.6 52.9 68 6 42.8
03:25 1022 30.18 851 25.13 11.6 52.9 66 5.5 42
03:30 1022 30.18 851 25.13 11.7 53.1 67 5.8 42.5
03:35 1022 30.18 851 25.13 11.4 52.5 69 5.9 42.6
03:40 1022 30.18 851 25.13 11.4 52.5 70 6.2 43.1
03:45 1022 30.18 851 25.13 11.3 52.4 72 6.4 43.5
03:50 1022 30.18 851 25.13 11.1 52 73 6.5 43.6
03:55 1022 30.18 851 25.13 10.8 51.4 74 6.4 43.5
04:00 1022 30.18 851 25.13 10.6 51.1 74 6.2 43.2
04:05 1022 30.18 851 25.13 10.6 51.1 74 6.2 43.2
04:10 1022 30.18 851 25.13 10.5 51 74 6.1 43
04:15 1022 30.18 851 25.13 10.8 51.4 72 6.1 42.9
04:20 1022 30.18 851 25.13 10.8 51.4 73 6.2 43.1
04:25 1022 30.18 851 25.13 10.8 51.4 73 6.1 43
04:30 1022 30.18 851 25.13 10.7 51.2 74 6.2 43.1
04:35 1022 30.18 851 25.13 10.5 51 74 6.2 43.1
04:40 1022 30.18 851 25.13 10.5 50.9 75 6.2 43.1
04:45 1022 30.18 851 25.13 10.4 50.7 75 6.1 43
04:50 1022 30.18 851 25.13 10.4 50.7 74 6 42.9
04:55 1022 30.18 851 25.13 10.6 51 74 6.1 43
05:00 1022 30.18 851 25.13 10.5 51 74 6.1 43
05:05 1022 30.18 851 25.13 10.8 51.4 72 5.9 42.7
05:10 1022 30.18 851 25.13 11.2 52.2 70 6 42.8
05:15 1022 30.18 851 25.13 11.3 52.4 70 6.2 43.1
05:20 1022 30.18 851 25.13 11.5 52.7 69 6.1 43
05:25 1022 30.18 851 25.13 11.2 52.2 72 6.4 43.5
05:30 1022 30.18 851 25.13 10.9 51.7 71 5.9 42.6
05:35 1022 30.18 851 25.13 10.7 51.3 72 5.9 42.6
05:40 1022 30.18 851 25.13 10.6 51.2 72 5.8 42.4
05:45 1022 30.18 851 25.13 10.6 51.1 72 5.8 42.4
05:50 1022 30.18 851 25.13 10.8 51.5 72 6 42.8
05:55 1022 30.18 851 25.13 10.8 51.4 72 5.9 42.7
06:00 1022 30.18 852 25.16 10.6 51.2 73 6.1 43
06:05 1022 30.18 852 25.16 10.4 50.7 73 5.9 42.6
06:10 1022 30.18 852 25.16 10.5 50.9 73 5.9 42.7
06:15 1022 30.18 852 25.16 10.5 50.9 74 6 42.8
06:20 1022 30.18 852 25.16 10.3 50.5 74 6 42.7
06:25 1022 30.18 852 25.16 10.2 50.3 74 5.7 42.2
06:30 1022 30.18 852 25.16 10.5 50.9 71 5.5 41.9
06:35 1023 30.21 852 25.16 10.9 51.6 71 5.8 42.4
06:40 1023 30.21 852 25.16 10.8 51.5 71 5.8 42.4
06:45 1023 30.21 852 25.16 10.9 51.7 70 5.8 42.4
06:50 1023 30.21 852 25.16 11 51.7 71 5.9 42.7
06:55 1023 30.21 852 25.16 11 51.7 71 6 42.8
07:00 1023 30.21 852 25.16 10.9 51.7 72 6.1 42.9
07:05 1023 30.21 852 25.16 11 51.8 72 6.1 43.1
07:10 1023 30.21 852 25.16 11.3 52.3 70 6 42.8
07:15 1023 30.21 852 25.16 11.6 52.9 70 6.3 43.4
07:20 1023 30.21 852 25.16 11.9 53.3 69 6.4 43.5
07:25 1023 30.21 852 25.16 12.2 53.9 68 6.4 43.5
07:30 1023 30.21 852 25.16 12.5 54.5 66 6.4 43.5
07:35 1023 30.21 852 25.16 12.8 55.1 66 6.6 43.9
07:40 1023 30.21 852 25.16 13.2 55.7 65 6.8 44.2
07:45 1023 30.21 852 25.16 13.8 56.8 63 6.9 44.4
07:50 1023 30.21 852 25.16 14.1 57.3 63 7.2 45
07:55 1023 30.21 852 25.16 14.5 58 62 7.4 45.2
08:00 1023 30.21 852 25.16 15.1 59.2 59 7.3 45.2
08:05 1023 30.21 852 25.16 15.1 59.2 61 7.7 45.9
08:10 1023 30.21 852 25.16 15.1 59.2 60 7.4 45.4
08:15 1023 30.21 852 25.16 15 59.1 61 7.6 45.8
08:20 1023 30.21 852 25.16 15.7 60.3 58 7.6 45.6
08:25 1023 30.21 852 25.16 16 60.7 59 8 46.4
08:30 1023 30.21 852 25.16 15.8 60.5 60 8.3 46.9
08:35 1023 30.21 852 25.16 15.5 59.9 57 7.1 44.8
08:40 1023 30.21 852 25.16 16.3 61.4 54 7.1 44.9
08:45 1023 30.21 852 25.16 16.7 62 52 6.9 44.5
08:50 1023 30.21 852 25.16 16.8 62.3 52 7 44.6
08:55 1023 30.21 852 25.16 16.5 61.6 55 7.4 45.4
09:00 1023 30.21 852 25.16 16.6 61.8 55 7.6 45.7
09:05 1023 30.21 852 25.16 16.6 62 52 6.7 44.1
09:10 1023 30.21 852 25.16 17.1 62.8 52 7.2 44.9
09:15 1023 30.21 852 25.16 17.5 63.5 52 7.6 45.6
09:20 1023 30.21 852 25.16 17.1 62.9 51 7.2 44.9
09:25 1023 30.21 852 25.16 17.5 63.4 53 7.8 46
09:30 1023 30.21 852 25.16 18.1 64.5 49 7.2 45
09:35 1023 30.21 852 25.16 18.6 65.4 47 7.3 45.1
09:40 1023 30.21 852 25.16 18.9 66.1 45 6.9 44.4
09:45 1023 30.21 852 25.16 18.8 65.8 48 7.6 45.6
09:50 1023 30.21 852 25.16 18.7 65.7 47 7.5 45.4
09:55 1023 30.21 852 25.16 18.8 65.9 47 7.4 45.4
10:00 1023 30.21 852 25.16 19.2 66.5 46 7.3 45.2
10:05 1023 30.21 852 25.16 19.8 67.6 45 7.6 45.6
10:10 1023 30.21 852 25.16 20 68 42 6.9 44.5
10:15 1023 30.21 852 25.16 19.8 67.6 42 6.5 43.7
10:20 1023 30.21 852 25.16 19.3 66.8 44 6.8 44.3
10:25 1023 30.21 852 25.16 18.8 65.9 46 7.2 44.9
10:30 1023 30.21 852 25.16 19.8 67.7 42 6.7 44.1
10:35 1023 30.21 852 25.16 19.4 67 44 6.9 44.5
10:40 1023 30.21 852 25.16 19.9 67.7 41 6.4 43.5
10:45 1023 30.21 852 25.16 19.7 67.4 43 6.8 44.2
10:50 1023 30.21 852 25.16 19.2 66.6 40 5.6 42.1
10:55 1023 30.21 852 25.16 20 68 41 6.6 43.9
11:00 1023 30.21 852 25.16 21.1 70 40 7.2 44.9
11:05 1023 30.21 852 25.16 20.9 69.6 37 6 42.8
11:10 1023 30.21 852 25.16 21.5 70.7 36 6.1 43
11:15 1023 30.21 852 25.16 21.9 71.4 36 6.4 43.4
11:20 1023 30.21 852 25.16 21.1 70 39 6.9 44.4
11:25 1023 30.21 852 25.16 21.2 70.2 38 6.5 43.8
11:30 1023 30.21 852 25.16 21.6 70.9 39 7.1 44.8
11:35 1023 30.21 852 25.16 21.5 70.6 37 6.3 43.3
11:40 1023 30.21 852 25.16 21.6 71 40 7.5 45.5
11:45 1023 30.21 852 25.16 22 71.5 35 6 42.9
11:50 1023 30.21 852 25.16 21.9 71.4 37 6.6 43.9
11:55 1023 30.21 852 25.16 22.4 72.2 35 6.4 43.5
12:00 1023 30.21 852 25.16 23.3 74 35 7 44.7
12:05 1023 30.21 852 25.16 22.7 72.8 38 7.7 45.8
12:10 1023 30.21 852 25.16 22.8 73 36 7 44.7
12:15 1023 30.21 852 25.16 22.8 73.1 37 7.7 45.9
12:20 1023 30.21 852 25.16 23 73.3 36 7.1 44.8
12:25 1023 30.21 852 25.16 23.8 74.8 34 7.2 44.9
12:30 1023 30.21 852 25.16 23.7 74.7 35 7.6 45.6
12:35 1023 30.21 852 25.16 23.8 74.8 34 7.4 45.3
12:40 1023 30.21 852 25.16 24.2 75.5 33 7.1 44.7
12:45 1023 30.21 852 25.16 24.9 76.8 32 7.2 44.9
12:50 1023 30.21 852 25.16 24.4 76 31 6.6 43.8
12:55 1023 30.21 852 25.16 24.2 75.6 29 5.5 41.8
13:00 1023 30.21 852 25.16 24.2 75.5 30 5.9 42.7
13:05 1023 30.21 852 25.16 23.9 75 32 6.6 43.9
13:10 1023 30.21 852 25.16 23.3 74 32 5.9 42.6
13:15 1023 30.21 852 25.16 24 75.2 26 3.5 38.4
13:20 1023 30.21 852 25.16 24.5 76.1 26 4.2 39.5
13:25 1023 30.21 852 25.16 25.4 77.7 28 5.8 42.5
13:30 1023 30.21 852 25.16 24.8 76.6 28 5.2 41.3
13:35 1023 30.21 852 25.16 23.9 75.1 29 5.2 41.4
13:40 1022 30.18 852 25.16 24.4 75.9 28 4.8 40.6
13:45 1023 30.21 852 25.16 24.9 76.8 28 5.3 41.5
13:50 1022 30.18 852 25.16 25.3 77.5 27 5.2 41.3
13:55 1023 30.21 852 25.16 25 76.9 28 5.5 42
14:00 1022 30.18 852 25.16 24.5 76.1 27 4.6 40.3
14:05 1022 30.18 852 25.16 23.7 74.7 30 5.4 41.7
14:10 1022 30.18 852 25.16 23.8 74.8 30 5.5 41.9
14:15 1022 30.18 852 25.16 24 75.1 29 5.2 41.3
14:20 1022 30.18 852 25.16 24 75.1 29 5.2 41.4
14:25 1022 30.18 852 25.16 24.9 76.8 27 4.6 40.4
14:30 1022 30.18 852 25.16 25.1 77.1 27 5.2 41.4
14:35 1022 30.18 852 25.16 24.7 76.4 29 5.5 41.8
14:40 1022 30.18 852 25.16 25.5 77.8 27 5.2 41.4
14:45 1022 30.18 852 25.16 24.5 76.1 28 5.1 41.2
14:50 1022 30.18 852 25.16 24.1 75.3 29 5.1 41.2
14:55 1022 30.18 851 25.13 24.5 76.1 28 4.8 40.7
15:00 1022 30.18 852 25.16 24.6 76.3 28 5.3 41.6
15:05 1022 30.18 851 25.13 25.1 77.2 28 5.6 42.1
15:10 1022 30.18 851 25.13 25.3 77.6 27 5.2 41.4
15:15 1022 30.18 851 25.13 24.3 75.7 29 5.6 42
15:20 1022 30.18 851 25.13 23.9 74.9 29 5.1 41.2
15:25 1022 30.18 851 25.13 23.8 74.8 29 5.1 41.2
15:30 1022 30.18 851 25.13 24.3 75.8 29 5.4 41.8
15:35 1022 30.18 851 25.13 24.2 75.6 29 5.3 41.5
15:40 1022 30.18 851 25.13 24.7 76.5 27 4.9 40.8
15:45 1022 30.18 851 25.13 25 77 28 5.3 41.5
15:50 1022 30.18 851 25.13 24.9 76.7 28 5.4 41.7
15:55 1022 30.18 851 25.13 25.7 78.2 24 4 39.1
16:00 1022 30.18 851 25.13 26.1 78.9 23 3.6 38.6
16:05 1022 30.18 851 25.13 26.3 79.4 24 4.5 40.1
16:10 1022 30.18 851 25.13 26.5 79.7 25 5.4 41.7
16:15 1022 30.18 851 25.13 26.5 79.6 24 4.5 40
16:20 1022 30.18 851 25.13 27 80.6 23 4.6 40.2
16:25 1022 30.18 851 25.13 27.2 81 25 5.8 42.5
16:30 1022 30.18 851 25.13 26.3 79.3 26 5.4 41.7
16:35 1022 30.18 851 25.13 26.5 79.7 22 3.5 38.3
16:40 1022 30.18 851 25.13 26.1 79 24 4 39.2
16:45 1022 30.18 851 25.13 25.8 78.4 25 4.2 39.6
16:50 1022 30.18 851 25.13 26.8 80.3 21 2.9 37.2
16:55 1022 30.18 851 25.13 27 80.6 23 4.2 39.5
17:00 1022 30.18 851 25.13 26.7 80.1 21 3 37.4
17:05 1022 30.18 851 25.13 26.8 80.3 22 3.5 38.3
17:10 1022 30.18 851 25.13 27.1 80.8 21 3.2 37.7
17:15 1022 30.18 851 25.13 27.3 81.1 20 2.9 37.2
17:20 1022 30.18 851 25.13 27.4 81.2 21 3.2 37.7
17:25 1022 30.18 851 25.13 26.6 79.8 22 3.4 38.2
17:30 1022 30.18 851 25.13 27 80.5 21 3.1 37.6
17:35 1022 30.18 851 25.13 27.3 81.1 21 3.2 37.8
17:40 1022 30.18 851 25.13 27.2 80.9 21 3.3 38
17:45 1022 30.18 851 25.13 27.1 80.7 19 1.7 35
17:50 1022 30.18 851 25.13 27.3 81.2 18 1.3 34.3
17:55 1022 30.18 851 25.13 27 80.7 20 2.3 36.1
18:00 1022 30.18 851 25.13 26.7 80 19 1.8 35.2
18:05 1022 30.18 851 25.13 26.7 80.1 20 2.1 35.9
18:10 1022 30.18 851 25.13 26.8 80.2 20 1.9 35.5
18:15 1022 30.18 851 25.13 27 80.6 18 1.3 34.3
18:20 1022 30.18 851 25.13 26.8 80.3 18 1.1 34
18:25 1022 30.18 851 25.13 26.7 80 19 1.4 34.5
18:30 1022 30.18 851 25.13 26.9 80.4 19 1.6 34.8
18:35 1022 30.18 851 25.13 27 80.5 19 1.5 34.6
18:40 1022 30.18 851 25.13 27 80.6 19 1.7 35.1
18:45 1022 30.18 851 25.13 27.1 80.8 18 1.2 34.1
18:50 1022 30.18 851 25.13 26.8 80.2 18 1 33.8
18:55 1022 30.18 851 25.13 26.4 79.6 19 0.9 33.6
19:00 1022 30.18 851 25.13 26.2 79.1 19 1 33.9
19:05 1022 30.18 851 25.13 26.2 79.1 19 1.1 34
19:10 1022 30.18 851 25.13 26.5 79.8 18 0.3 32.5
19:15 1022 30.18 851 25.13 26.3 79.3 19 1.3 34.4
19:20 1022 30.18 851 25.13 26.1 78.9 19 1.2 34.2
19:25 1022 30.18 851 25.13 25.9 78.6 20 1.7 35
19:30 1022 30.18 851 25.13 25.6 78 20 1.5 34.7
19:35 1022 30.18 851 25.13 25.4 77.8 20 0.9 33.6
19:40 1022 30.18 851 25.13 25.4 77.7 21 1.5 34.7
19:45 1022 30.18 851 25.13 25.3 77.6 22 2.3 36.1
19:50 1022 30.18 851 25.13 25.2 77.3 19 0.3 32.5
19:55 1022 30.18 851 25.13 25.1 77.1 20 0.7 33.2
20:00 1022 30.18 851 25.13 24.9 76.8 23 2.5 36.6
20:05 1022 30.18 851 25.13 24.7 76.5 20 0.4 32.6
20:10 1022 30.18 851 25.13 24.7 76.4 20 0.3 32.5
20:15 1022 30.18 851 25.13 24.8 76.6 22 2 35.7
20:20 1022 30.18 851 25.13 24.6 76.2 22 2 35.6
20:25 1022 30.18 851 25.13 24.4 75.9 22 1.5 34.6
20:30 1022 30.18 851 25.13 24.2 75.6 23 2.2 36
20:35 1022 30.18 851 25.13 24.1 75.3 25 3.1 37.7
20:40 1022 30.18 851 25.13 23.9 75 27 3.9 39
20:45 1022 30.18 851 25.13 23.5 74.3 36 7.8 46
20:50 1022 30.18 851 25.13 22.6 72.6 41 9 48.2
20:55 1022 30.18 851 25.13 21.8 71.2 44 9.1 48.4
21:00 1022 30.18 851 25.13 21.3 70.3 42 8.2 46.7
21:05 1022 30.18 851 25.13 20.9 69.7 44 8.4 47.2
21:10 1022 30.18 851 25.13 20.6 69 43 7.8 46.1
21:15 1022 30.18 851 25.13 20.1 68.2 46 8.4 47.1
21:20 1022 30.18 851 25.13 19.6 67.2 48 8.3 47
21:25 1022 30.18 851 25.13 19 66.2 50 8.6 47.5
21:30 1022 30.18 851 25.13 18.7 65.6 49 7.7 45.9
21:35 1022 30.18 851 25.13 18.4 65.1 54 9.1 48.4
21:40 1022 30.18 851 25.13 18.1 64.6 48 7.2 44.9
21:45 1022 30.18 851 25.13 18 64.4 49 7.3 45.1
21:50 1022 30.18 851 25.13 17.8 64 48 6.9 44.4
21:55 1022 30.18 852 25.16 17.6 63.7 46 5.8 42.5
22:00 1022 30.18 852 25.16 17.7 63.9 46 6.1 42.9
22:05 1022 30.18 852 25.16 17.6 63.6 47 6.2 43.1
22:10 1023 30.21 852 25.16 17.3 63.1 48 6.3 43.4
22:15 1023 30.21 852 25.16 17 62.7 49 6.2 43.2
22:20 1023 30.21 852 25.16 16.9 62.5 49 6.1 43
22:25 1023 30.21 852 25.16 16.9 62.4 47 5.6 42.2
22:30 1023 30.21 852 25.16 16.9 62.5 48 5.9 42.6
22:35 1023 30.21 852 25.16 16.8 62.2 47 5.4 41.6
22:40 1023 30.21 852 25.16 16.7 62.1 46 5.3 41.6
22:45 1023 30.21 852 25.16 16.7 62 45 4.8 40.7
22:50 1023 30.21 852 25.16 16.8 62.2 44 4.7 40.5
22:55 1023 30.21 852 25.16 16.9 62.3 43 4.4 39.9
23:00 1023 30.21 852 25.16 17.3 63.1 40 3.7 38.6
23:05 1023 30.21 852 25.16 18.1 64.5 37 3.1 37.7
23:10 1023 30.21 852 25.16 18 64.5 39 3.9 39
23:15 1023 30.21 852 25.16 17.3 63.2 41 4.2 39.6
23:20 1023 30.21 852 25.16 16.8 62.2 43 4.3 39.8
23:25 1023 30.21 852 25.16 16.3 61.4 45 4.4 40
23:30 1023 30.21 852 25.16 16.1 61 44 4.1 39.4
23:35 1023 30.21 852 25.16 16.3 61.3 44 4 39.2
23:40 1023 30.21 852 25.16 16.2 61.1 45 4.2 39.6
23:45 1023 30.21 852 25.16 15.9 60.7 47 4.7 40.5
23:50 1023 30.21 852 25.16 15.5 59.9 49 4.9 40.9
23:55 1023 30.21 852 25.16 15.4 59.7 50 5.1 41.2
24:00 1023 30.21 852 25.16 15.9 60.6 49 5.2 41.3